sensor_id;sensor_type;location;lat;lon;timestamp;P1;durP1;ratioP1;P2;durP2;ratioP2
8317;SDS011;4196;48.926;8.964;2024-01-07T00:34:20;18.87;;;8.07;;
8317;SDS011;4196;48.926;8.964;2024-01-07T00:37:07;19.23;;;9.40;;
8317;SDS011;4196;48.926;8.964;2024-01-07T00:39:53;17.00;;;7.60;;
8317;SDS011;4196;48.926;8.964;2024-01-07T00:42:39;17.90;;;8.87;;
8317;SDS011;4196;48.926;8.964;2024-01-07T00:45:26;17.03;;;8.93;;
8317;SDS011;4196;48.926;8.964;2024-01-07T00:48:13;17.43;;;8.57;;
8317;SDS011;4196;48.926;8.964;2024-01-07T00:51:00;16.97;;;8.70;;
8317;SDS011;4196;48.926;8.964;2024-01-07T00:53:47;18.00;;;9.73;;
8317;SDS011;4196;48.926;8.964;2024-01-07T00:56:34;16.10;;;6.80;;
8317;SDS011;4196;48.926;8.964;2024-01-07T00:59:20;20.30;;;9.23;;
8317;SDS011;4196;48.926;8.964;2024-01-07T01:02:06;14.73;;;8.17;;
8317;SDS011;4196;48.926;8.964;2024-01-07T01:04:53;20.80;;;9.80;;
8317;SDS011;4196;48.926;8.964;2024-01-07T01:07:39;17.23;;;7.80;;
8317;SDS011;4196;48.926;8.964;2024-01-07T01:10:25;17.17;;;8.13;;
8317;SDS011;4196;48.926;8.964;2024-01-07T01:13:12;19.57;;;9.90;;
8317;SDS011;4196;48.926;8.964;2024-01-07T01:15:59;15.13;;;8.00;;
8317;SDS011;4196;48.926;8.964;2024-01-07T01:18:45;16.47;;;8.13;;
8317;SDS011;4196;48.926;8.964;2024-01-07T01:21:32;15.67;;;7.47;;
8317;SDS011;4196;48.926;8.964;2024-01-07T01:24:19;17.00;;;7.57;;
8317;SDS011;4196;48.926;8.964;2024-01-07T01:27:05;15.83;;;8.03;;
8317;SDS011;4196;48.926;8.964;2024-01-07T01:29:51;16.60;;;7.30;;
8317;SDS011;4196;48.926;8.964;2024-01-07T01:32:38;19.87;;;8.60;;
8317;SDS011;4196;48.926;8.964;2024-01-07T01:35:24;12.30;;;6.40;;
8317;SDS011;4196;48.926;8.964;2024-01-07T01:38:11;11.47;;;7.07;;
8317;SDS011;4196;48.926;8.964;2024-01-07T01:40:57;12.83;;;6.47;;
8317;SDS011;4196;48.926;8.964;2024-01-07T01:43:44;15.57;;;7.33;;
8317;SDS011;4196;48.926;8.964;2024-01-07T01:46:30;15.50;;;8.37;;
8317;SDS011;4196;48.926;8.964;2024-01-07T01:49:18;12.27;;;7.90;;
8317;SDS011;4196;48.926;8.964;2024-01-07T01:52:05;12.50;;;7.27;;
8317;SDS011;4196;48.926;8.964;2024-01-07T01:54:51;16.63;;;7.23;;
8317;SDS011;4196;48.926;8.964;2024-01-07T01:57:39;13.50;;;7.90;;
8317;SDS011;4196;48.926;8.964;2024-01-07T02:00:27;13.47;;;7.27;;
8317;SDS011;4196;48.926;8.964;2024-01-07T02:03:13;12.83;;;6.40;;
8317;SDS011;4196;48.926;8.964;2024-01-07T02:06:00;13.17;;;6.27;;
8317;SDS011;4196;48.926;8.964;2024-01-07T02:08:47;13.37;;;6.40;;
8317;SDS011;4196;48.926;8.964;2024-01-07T02:11:34;13.97;;;6.17;;
8317;SDS011;4196;48.926;8.964;2024-01-07T02:14:21;12.33;;;6.60;;
8317;SDS011;4196;48.926;8.964;2024-01-07T02:17:11;12.20;;;6.67;;
8317;SDS011;4196;48.926;8.964;2024-01-07T02:19:57;13.27;;;6.37;;
8317;SDS011;4196;48.926;8.964;2024-01-07T02:22:44;14.00;;;6.20;;
8317;SDS011;4196;48.926;8.964;2024-01-07T02:25:34;14.20;;;6.93;;
8317;SDS011;4196;48.926;8.964;2024-01-07T02:28:22;12.83;;;6.40;;
8317;SDS011;4196;48.926;8.964;2024-01-07T02:31:08;11.30;;;6.47;;
8317;SDS011;4196;48.926;8.964;2024-01-07T02:33:55;12.47;;;6.27;;
8317;SDS011;4196;48.926;8.964;2024-01-07T02:36:41;11.77;;;6.40;;
8317;SDS011;4196;48.926;8.964;2024-01-07T02:39:28;12.43;;;6.30;;
8317;SDS011;4196;48.926;8.964;2024-01-07T02:42:14;12.33;;;7.53;;
8317;SDS011;4196;48.926;8.964;2024-01-07T02:45:01;13.90;;;7.00;;
8317;SDS011;4196;48.926;8.964;2024-01-07T02:47:48;12.43;;;6.63;;
8317;SDS011;4196;48.926;8.964;2024-01-07T02:50:34;12.03;;;7.33;;
8317;SDS011;4196;48.926;8.964;2024-01-07T02:53:21;12.70;;;6.63;;
8317;SDS011;4196;48.926;8.964;2024-01-07T02:56:07;13.53;;;7.83;;
8317;SDS011;4196;48.926;8.964;2024-01-07T02:58:54;14.20;;;6.23;;
8317;SDS011;4196;48.926;8.964;2024-01-07T03:01:41;13.73;;;7.13;;
8317;SDS011;4196;48.926;8.964;2024-01-07T03:04:28;14.43;;;7.87;;
8317;SDS011;4196;48.926;8.964;2024-01-07T03:07:15;16.03;;;7.53;;
8317;SDS011;4196;48.926;8.964;2024-01-07T03:10:01;12.53;;;7.70;;
8317;SDS011;4196;48.926;8.964;2024-01-07T03:12:48;16.00;;;7.43;;
8317;SDS011;4196;48.926;8.964;2024-01-07T03:15:35;15.80;;;7.60;;
8317;SDS011;4196;48.926;8.964;2024-01-07T03:18:21;12.27;;;7.67;;
8317;SDS011;4196;48.926;8.964;2024-01-07T03:21:15;12.67;;;7.53;;
8317;SDS011;4196;48.926;8.964;2024-01-07T03:24:02;12.60;;;6.63;;
8317;SDS011;4196;48.926;8.964;2024-01-07T03:26:49;13.87;;;7.00;;
8317;SDS011;4196;48.926;8.964;2024-01-07T03:29:36;12.70;;;7.30;;
8317;SDS011;4196;48.926;8.964;2024-01-07T03:32:22;12.83;;;6.90;;
8317;SDS011;4196;48.926;8.964;2024-01-07T03:35:09;14.50;;;6.27;;
8317;SDS011;4196;48.926;8.964;2024-01-07T03:37:55;13.27;;;7.23;;
8317;SDS011;4196;48.926;8.964;2024-01-07T03:40:42;12.90;;;6.87;;
8317;SDS011;4196;48.926;8.964;2024-01-07T03:43:29;13.23;;;6.83;;
8317;SDS011;4196;48.926;8.964;2024-01-07T03:46:15;15.90;;;7.27;;
8317;SDS011;4196;48.926;8.964;2024-01-07T03:49:02;13.23;;;7.90;;
8317;SDS011;4196;48.926;8.964;2024-01-07T03:51:49;12.20;;;7.23;;
8317;SDS011;4196;48.926;8.964;2024-01-07T03:54:35;13.13;;;7.37;;
8317;SDS011;4196;48.926;8.964;2024-01-07T03:57:22;14.47;;;6.77;;
8317;SDS011;4196;48.926;8.964;2024-01-07T04:00:08;14.37;;;6.67;;
8317;SDS011;4196;48.926;8.964;2024-01-07T04:02:56;13.17;;;6.60;;
8317;SDS011;4196;48.926;8.964;2024-01-07T04:05:42;13.43;;;6.27;;
8317;SDS011;4196;48.926;8.964;2024-01-07T04:08:31;14.07;;;7.20;;
8317;SDS011;4196;48.926;8.964;2024-01-07T04:11:17;14.60;;;7.00;;
8317;SDS011;4196;48.926;8.964;2024-01-07T04:14:04;13.93;;;7.03;;
8317;SDS011;4196;48.926;8.964;2024-01-07T04:16:51;12.30;;;6.73;;
8317;SDS011;4196;48.926;8.964;2024-01-07T04:19:37;13.67;;;5.87;;
8317;SDS011;4196;48.926;8.964;2024-01-07T04:22:24;13.50;;;7.00;;
8317;SDS011;4196;48.926;8.964;2024-01-07T04:25:10;11.83;;;6.63;;
8317;SDS011;4196;48.926;8.964;2024-01-07T04:27:57;11.10;;;5.63;;
8317;SDS011;4196;48.926;8.964;2024-01-07T04:30:44;11.63;;;6.87;;
8317;SDS011;4196;48.926;8.964;2024-01-07T04:33:30;13.43;;;6.43;;
8317;SDS011;4196;48.926;8.964;2024-01-07T04:36:16;10.30;;;5.83;;
8317;SDS011;4196;48.926;8.964;2024-01-07T04:39:03;11.77;;;6.10;;
8317;SDS011;4196;48.926;8.964;2024-01-07T04:41:49;12.33;;;6.07;;
8317;SDS011;4196;48.926;8.964;2024-01-07T04:44:36;11.53;;;6.07;;
8317;SDS011;4196;48.926;8.964;2024-01-07T04:47:32;10.57;;;5.87;;
8317;SDS011;4196;48.926;8.964;2024-01-07T04:50:22;11.80;;;6.03;;
8317;SDS011;4196;48.926;8.964;2024-01-07T04:53:09;12.17;;;6.37;;
8317;SDS011;4196;48.926;8.964;2024-01-07T04:55:55;12.20;;;6.17;;
8317;SDS011;4196;48.926;8.964;2024-01-07T04:58:41;13.60;;;7.03;;
8317;SDS011;4196;48.926;8.964;2024-01-07T05:01:28;9.17;;;5.57;;
8317;SDS011;4196;48.926;8.964;2024-01-07T05:04:14;10.07;;;5.47;;
8317;SDS011;4196;48.926;8.964;2024-01-07T05:07:01;8.90;;;5.53;;
8317;SDS011;4196;48.926;8.964;2024-01-07T05:09:47;13.23;;;5.70;;
8317;SDS011;4196;48.926;8.964;2024-01-07T05:12:34;11.33;;;5.43;;
8317;SDS011;4196;48.926;8.964;2024-01-07T05:15:20;16.67;;;6.83;;
8317;SDS011;4196;48.926;8.964;2024-01-07T05:18:07;10.90;;;5.43;;
8317;SDS011;4196;48.926;8.964;2024-01-07T05:20:55;13.33;;;5.53;;
8317;SDS011;4196;48.926;8.964;2024-01-07T05:23:41;9.77;;;6.03;;
8317;SDS011;4196;48.926;8.964;2024-01-07T05:26:28;10.33;;;5.93;;
8317;SDS011;4196;48.926;8.964;2024-01-07T05:29:15;11.47;;;6.70;;
8317;SDS011;4196;48.926;8.964;2024-01-07T05:32:01;13.07;;;6.00;;
8317;SDS011;4196;48.926;8.964;2024-01-07T05:34:49;11.80;;;6.00;;
8317;SDS011;4196;48.926;8.964;2024-01-07T05:37:36;9.80;;;5.00;;
8317;SDS011;4196;48.926;8.964;2024-01-07T05:40:23;11.57;;;6.30;;
8317;SDS011;4196;48.926;8.964;2024-01-07T05:43:09;12.27;;;6.50;;
8317;SDS011;4196;48.926;8.964;2024-01-07T05:45:56;8.07;;;4.80;;
8317;SDS011;4196;48.926;8.964;2024-01-07T05:48:47;15.90;;;8.17;;
8317;SDS011;4196;48.926;8.964;2024-01-07T05:51:39;11.73;;;5.43;;
8317;SDS011;4196;48.926;8.964;2024-01-07T05:54:26;10.30;;;5.40;;
8317;SDS011;4196;48.926;8.964;2024-01-07T05:57:17;11.63;;;6.30;;
8317;SDS011;4196;48.926;8.964;2024-01-07T06:00:03;12.17;;;6.17;;
8317;SDS011;4196;48.926;8.964;2024-01-07T06:02:57;11.80;;;7.23;;
8317;SDS011;4196;48.926;8.964;2024-01-07T06:05:45;9.97;;;6.00;;
8317;SDS011;4196;48.926;8.964;2024-01-07T06:08:31;11.30;;;5.70;;
8317;SDS011;4196;48.926;8.964;2024-01-07T06:11:17;9.00;;;6.10;;
8317;SDS011;4196;48.926;8.964;2024-01-07T06:14:06;10.23;;;6.30;;
8317;SDS011;4196;48.926;8.964;2024-01-07T06:16:53;10.97;;;6.30;;
8317;SDS011;4196;48.926;8.964;2024-01-07T06:19:39;11.07;;;6.83;;
8317;SDS011;4196;48.926;8.964;2024-01-07T06:22:26;10.90;;;5.73;;
8317;SDS011;4196;48.926;8.964;2024-01-07T06:25:12;11.30;;;7.07;;
8317;SDS011;4196;48.926;8.964;2024-01-07T06:27:59;14.07;;;6.60;;
8317;SDS011;4196;48.926;8.964;2024-01-07T06:30:45;9.23;;;5.73;;
8317;SDS011;4196;48.926;8.964;2024-01-07T06:33:32;10.37;;;5.90;;
8317;SDS011;4196;48.926;8.964;2024-01-07T06:36:18;11.00;;;5.77;;
8317;SDS011;4196;48.926;8.964;2024-01-07T06:39:05;16.83;;;8.33;;
8317;SDS011;4196;48.926;8.964;2024-01-07T06:41:52;10.97;;;5.57;;
8317;SDS011;4196;48.926;8.964;2024-01-07T06:44:38;12.67;;;6.60;;
8317;SDS011;4196;48.926;8.964;2024-01-07T06:47:25;10.57;;;5.50;;
8317;SDS011;4196;48.926;8.964;2024-01-07T06:50:11;10.97;;;6.40;;
8317;SDS011;4196;48.926;8.964;2024-01-07T06:52:57;11.97;;;5.97;;
8317;SDS011;4196;48.926;8.964;2024-01-07T06:55:44;8.87;;;6.00;;
8317;SDS011;4196;48.926;8.964;2024-01-07T06:58:30;10.37;;;5.43;;
8317;SDS011;4196;48.926;8.964;2024-01-07T07:01:21;8.40;;;5.73;;
8317;SDS011;4196;48.926;8.964;2024-01-07T07:04:09;10.23;;;5.30;;
8317;SDS011;4196;48.926;8.964;2024-01-07T07:06:55;12.70;;;6.80;;
8317;SDS011;4196;48.926;8.964;2024-01-07T07:09:43;9.53;;;5.27;;
8317;SDS011;4196;48.926;8.964;2024-01-07T07:12:30;12.10;;;6.57;;
8317;SDS011;4196;48.926;8.964;2024-01-07T07:15:16;11.00;;;6.20;;
8317;SDS011;4196;48.926;8.964;2024-01-07T07:18:03;10.97;;;6.57;;
8317;SDS011;4196;48.926;8.964;2024-01-07T07:20:50;8.73;;;5.53;;
8317;SDS011;4196;48.926;8.964;2024-01-07T07:23:37;9.53;;;6.07;;
8317;SDS011;4196;48.926;8.964;2024-01-07T07:26:23;10.73;;;5.93;;
8317;SDS011;4196;48.926;8.964;2024-01-07T07:29:10;8.70;;;4.77;;
8317;SDS011;4196;48.926;8.964;2024-01-07T07:31:56;12.23;;;5.37;;
8317;SDS011;4196;48.926;8.964;2024-01-07T07:34:43;9.37;;;5.83;;
8317;SDS011;4196;48.926;8.964;2024-01-07T07:37:30;12.20;;;6.67;;
8317;SDS011;4196;48.926;8.964;2024-01-07T07:40:16;6.97;;;5.70;;
8317;SDS011;4196;48.926;8.964;2024-01-07T07:43:03;10.73;;;5.93;;
8317;SDS011;4196;48.926;8.964;2024-01-07T07:45:50;8.63;;;6.00;;
8317;SDS011;4196;48.926;8.964;2024-01-07T07:48:37;10.57;;;6.70;;
8317;SDS011;4196;48.926;8.964;2024-01-07T07:51:24;10.80;;;6.77;;
8317;SDS011;4196;48.926;8.964;2024-01-07T07:54:13;14.13;;;7.30;;
8317;SDS011;4196;48.926;8.964;2024-01-07T07:57:00;11.93;;;6.47;;
8317;SDS011;4196;48.926;8.964;2024-01-07T07:59:49;12.10;;;6.73;;
8317;SDS011;4196;48.926;8.964;2024-01-07T08:03:09;10.63;;;6.90;;
8317;SDS011;4196;48.926;8.964;2024-01-07T08:05:55;12.00;;;6.57;;
8317;SDS011;4196;48.926;8.964;2024-01-07T08:08:42;9.27;;;5.77;;
8317;SDS011;4196;48.926;8.964;2024-01-07T08:11:29;11.63;;;6.70;;
8317;SDS011;4196;48.926;8.964;2024-01-07T08:14:16;8.40;;;4.70;;
8317;SDS011;4196;48.926;8.964;2024-01-07T08:17:02;10.47;;;6.07;;
8317;SDS011;4196;48.926;8.964;2024-01-07T08:19:51;10.63;;;4.90;;
8317;SDS011;4196;48.926;8.964;2024-01-07T08:22:38;10.13;;;5.03;;
8317;SDS011;4196;48.926;8.964;2024-01-07T08:25:25;8.27;;;4.07;;
8317;SDS011;4196;48.926;8.964;2024-01-07T08:28:12;11.30;;;5.13;;
8317;SDS011;4196;48.926;8.964;2024-01-07T08:30:58;10.20;;;5.20;;
8317;SDS011;4196;48.926;8.964;2024-01-07T08:33:45;12.03;;;5.33;;
8317;SDS011;4196;48.926;8.964;2024-01-07T08:36:32;7.23;;;4.30;;
8317;SDS011;4196;48.926;8.964;2024-01-07T08:39:18;9.07;;;5.20;;
8317;SDS011;4196;48.926;8.964;2024-01-07T08:42:05;10.40;;;5.40;;
8317;SDS011;4196;48.926;8.964;2024-01-07T08:44:51;10.20;;;5.23;;
8317;SDS011;4196;48.926;8.964;2024-01-07T08:47:37;8.57;;;5.17;;
8317;SDS011;4196;48.926;8.964;2024-01-07T08:50:30;12.83;;;5.30;;
8317;SDS011;4196;48.926;8.964;2024-01-07T08:53:31;9.73;;;5.97;;
8317;SDS011;4196;48.926;8.964;2024-01-07T08:56:17;9.97;;;4.63;;
8317;SDS011;4196;48.926;8.964;2024-01-07T08:59:03;8.90;;;5.03;;
8317;SDS011;4196;48.926;8.964;2024-01-07T09:01:50;7.47;;;4.57;;
8317;SDS011;4196;48.926;8.964;2024-01-07T09:04:36;9.17;;;5.10;;
8317;SDS011;4196;48.926;8.964;2024-01-07T09:07:23;7.87;;;4.67;;
8317;SDS011;4196;48.926;8.964;2024-01-07T09:10:10;10.73;;;5.83;;
8317;SDS011;4196;48.926;8.964;2024-01-07T09:12:57;8.03;;;4.57;;
8317;SDS011;4196;48.926;8.964;2024-01-07T09:15:44;8.93;;;4.97;;
8317;SDS011;4196;48.926;8.964;2024-01-07T09:18:31;10.80;;;5.77;;
8317;SDS011;4196;48.926;8.964;2024-01-07T09:21:18;7.50;;;4.67;;
8317;SDS011;4196;48.926;8.964;2024-01-07T09:24:05;9.77;;;5.40;;
8317;SDS011;4196;48.926;8.964;2024-01-07T09:26:51;7.80;;;5.00;;
8317;SDS011;4196;48.926;8.964;2024-01-07T09:29:38;10.50;;;5.27;;
8317;SDS011;4196;48.926;8.964;2024-01-07T09:32:24;6.53;;;4.30;;
8317;SDS011;4196;48.926;8.964;2024-01-07T09:35:11;7.47;;;4.80;;
8317;SDS011;4196;48.926;8.964;2024-01-07T09:37:57;8.40;;;4.40;;
8317;SDS011;4196;48.926;8.964;2024-01-07T09:40:44;7.80;;;4.87;;
8317;SDS011;4196;48.926;8.964;2024-01-07T09:43:30;9.27;;;4.70;;
8317;SDS011;4196;48.926;8.964;2024-01-07T09:46:21;6.50;;;4.00;;
8317;SDS011;4196;48.926;8.964;2024-01-07T09:49:09;8.07;;;4.10;;
8317;SDS011;4196;48.926;8.964;2024-01-07T09:51:57;6.03;;;3.80;;
8317;SDS011;4196;48.926;8.964;2024-01-07T09:54:48;6.10;;;4.00;;
8317;SDS011;4196;48.926;8.964;2024-01-07T09:57:40;7.60;;;4.53;;
8317;SDS011;4196;48.926;8.964;2024-01-07T10:00:26;6.97;;;3.90;;
8317;SDS011;4196;48.926;8.964;2024-01-07T10:03:13;6.40;;;4.07;;
8317;SDS011;4196;48.926;8.964;2024-01-07T10:06:00;8.87;;;3.97;;
8317;SDS011;4196;48.926;8.964;2024-01-07T10:08:46;9.00;;;4.77;;
8317;SDS011;4196;48.926;8.964;2024-01-07T10:11:33;7.73;;;3.03;;
8317;SDS011;4196;48.926;8.964;2024-01-07T10:14:19;5.80;;;3.00;;
8317;SDS011;4196;48.926;8.964;2024-01-07T10:17:14;5.27;;;3.13;;
8317;SDS011;4196;48.926;8.964;2024-01-07T10:20:04;5.50;;;3.10;;
8317;SDS011;4196;48.926;8.964;2024-01-07T10:22:51;5.30;;;3.63;;
8317;SDS011;4196;48.926;8.964;2024-01-07T10:25:38;5.53;;;3.07;;
8317;SDS011;4196;48.926;8.964;2024-01-07T10:28:25;5.90;;;3.57;;
8317;SDS011;4196;48.926;8.964;2024-01-07T10:31:12;4.60;;;3.27;;
8317;SDS011;4196;48.926;8.964;2024-01-07T10:34:00;4.30;;;3.47;;
8317;SDS011;4196;48.926;8.964;2024-01-07T10:36:47;7.30;;;3.13;;
8317;SDS011;4196;48.926;8.964;2024-01-07T10:39:34;5.03;;;3.60;;
8317;SDS011;4196;48.926;8.964;2024-01-07T10:42:21;4.53;;;2.93;;
8317;SDS011;4196;48.926;8.964;2024-01-07T10:45:07;5.63;;;3.90;;
8317;SDS011;4196;48.926;8.964;2024-01-07T10:47:54;4.47;;;2.60;;
8317;SDS011;4196;48.926;8.964;2024-01-07T10:50:42;4.00;;;3.07;;
8317;SDS011;4196;48.926;8.964;2024-01-07T10:53:34;5.07;;;2.90;;
8317;SDS011;4196;48.926;8.964;2024-01-07T10:56:31;5.50;;;3.67;;
8317;SDS011;4196;48.926;8.964;2024-01-07T10:59:26;3.63;;;2.53;;
8317;SDS011;4196;48.926;8.964;2024-01-07T11:02:14;4.33;;;2.53;;
8317;SDS011;4196;48.926;8.964;2024-01-07T11:05:10;3.77;;;2.63;;
8317;SDS011;4196;48.926;8.964;2024-01-07T11:08:06;3.30;;;2.50;;
8317;SDS011;4196;48.926;8.964;2024-01-07T11:11:06;4.83;;;3.20;;
8317;SDS011;4196;48.926;8.964;2024-01-07T11:20:20;4.17;;;2.77;;
8317;SDS011;4196;48.926;8.964;2024-01-07T11:23:27;4.03;;;2.50;;
8317;SDS011;4196;48.926;8.964;2024-01-07T11:26:15;4.00;;;2.50;;
8317;SDS011;4196;48.926;8.964;2024-01-07T11:29:01;5.33;;;3.13;;
8317;SDS011;4196;48.926;8.964;2024-01-07T11:31:48;5.67;;;2.57;;
8317;SDS011;4196;48.926;8.964;2024-01-07T11:34:43;4.00;;;2.57;;
8317;SDS011;4196;48.926;8.964;2024-01-07T11:37:30;4.77;;;3.03;;
8317;SDS011;4196;48.926;8.964;2024-01-07T11:40:16;5.37;;;2.70;;
8317;SDS011;4196;48.926;8.964;2024-01-07T11:43:05;2.90;;;2.30;;
8317;SDS011;4196;48.926;8.964;2024-01-07T11:45:51;4.27;;;2.80;;
8317;SDS011;4196;48.926;8.964;2024-01-07T11:48:39;3.37;;;3.07;;
8317;SDS011;4196;48.926;8.964;2024-01-07T11:51:26;3.27;;;2.83;;
8317;SDS011;4196;48.926;8.964;2024-01-07T11:54:21;4.03;;;2.47;;
8317;SDS011;4196;48.926;8.964;2024-01-07T11:57:08;4.93;;;3.10;;
8317;SDS011;4196;48.926;8.964;2024-01-07T11:59:56;3.23;;;2.77;;
8317;SDS011;4196;48.926;8.964;2024-01-07T12:02:42;4.47;;;2.97;;
8317;SDS011;4196;48.926;8.964;2024-01-07T12:05:30;4.90;;;3.23;;
8317;SDS011;4196;48.926;8.964;2024-01-07T12:08:17;5.23;;;3.00;;
8317;SDS011;4196;48.926;8.964;2024-01-07T12:11:03;5.17;;;3.40;;
8317;SDS011;4196;48.926;8.964;2024-01-07T12:13:51;4.87;;;2.97;;
8317;SDS011;4196;48.926;8.964;2024-01-07T12:16:38;4.20;;;3.07;;
8317;SDS011;4196;48.926;8.964;2024-01-07T12:19:24;6.37;;;3.50;;
8317;SDS011;4196;48.926;8.964;2024-01-07T12:22:11;3.30;;;2.87;;
8317;SDS011;4196;48.926;8.964;2024-01-07T12:25:07;5.77;;;3.70;;
8317;SDS011;4196;48.926;8.964;2024-01-07T12:27:54;5.30;;;3.33;;
8317;SDS011;4196;48.926;8.964;2024-01-07T12:30:41;5.73;;;3.17;;
8317;SDS011;4196;48.926;8.964;2024-01-07T12:33:28;5.20;;;3.40;;
8317;SDS011;4196;48.926;8.964;2024-01-07T12:36:16;6.07;;;4.23;;
8317;SDS011;4196;48.926;8.964;2024-01-07T12:39:06;5.43;;;3.60;;
8317;SDS011;4196;48.926;8.964;2024-01-07T12:41:53;5.80;;;3.60;;
8317;SDS011;4196;48.926;8.964;2024-01-07T12:44:39;6.23;;;4.17;;
8317;SDS011;4196;48.926;8.964;2024-01-07T12:47:25;5.80;;;4.00;;
8317;SDS011;4196;48.926;8.964;2024-01-07T12:50:13;6.27;;;4.17;;
8317;SDS011;4196;48.926;8.964;2024-01-07T12:53:01;6.77;;;4.27;;
8317;SDS011;4196;48.926;8.964;2024-01-07T12:55:48;8.20;;;4.67;;
8317;SDS011;4196;48.926;8.964;2024-01-07T12:58:34;5.93;;;3.87;;
8317;SDS011;4196;48.926;8.964;2024-01-07T13:01:20;8.33;;;5.13;;
8317;SDS011;4196;48.926;8.964;2024-01-07T13:04:08;6.90;;;3.87;;
8317;SDS011;4196;48.926;8.964;2024-01-07T13:06:56;5.70;;;3.90;;
8317;SDS011;4196;48.926;8.964;2024-01-07T13:09:42;7.07;;;4.50;;
8317;SDS011;4196;48.926;8.964;2024-01-07T13:12:31;8.40;;;4.43;;
8317;SDS011;4196;48.926;8.964;2024-01-07T13:15:32;5.57;;;4.30;;
8317;SDS011;4196;48.926;8.964;2024-01-07T13:18:18;7.17;;;4.00;;
8317;SDS011;4196;48.926;8.964;2024-01-07T13:21:06;6.87;;;3.93;;
8317;SDS011;4196;48.926;8.964;2024-01-07T13:23:52;8.87;;;4.83;;
8317;SDS011;4196;48.926;8.964;2024-01-07T13:26:39;6.97;;;4.30;;
8317;SDS011;4196;48.926;8.964;2024-01-07T13:29:28;8.60;;;5.27;;
8317;SDS011;4196;48.926;8.964;2024-01-07T13:32:15;7.17;;;3.70;;
8317;SDS011;4196;48.926;8.964;2024-01-07T13:35:03;6.67;;;4.47;;
8317;SDS011;4196;48.926;8.964;2024-01-07T13:37:50;9.00;;;5.20;;
8317;SDS011;4196;48.926;8.964;2024-01-07T13:40:38;10.83;;;5.53;;
8317;SDS011;4196;48.926;8.964;2024-01-07T13:43:25;7.57;;;4.47;;
8317;SDS011;4196;48.926;8.964;2024-01-07T13:46:13;8.40;;;4.23;;
8317;SDS011;4196;48.926;8.964;2024-01-07T13:49:00;9.37;;;4.80;;
8317;SDS011;4196;48.926;8.964;2024-01-07T14:09:32;10.00;;;5.87;;
8317;SDS011;4196;48.926;8.964;2024-01-07T14:12:19;11.03;;;5.20;;
8317;SDS011;4196;48.926;8.964;2024-01-07T14:15:06;10.63;;;4.73;;
8317;SDS011;4196;48.926;8.964;2024-01-07T14:17:54;9.10;;;4.30;;
8317;SDS011;4196;48.926;8.964;2024-01-07T14:20:40;8.57;;;5.10;;
8317;SDS011;4196;48.926;8.964;2024-01-07T14:23:28;9.03;;;5.63;;
8317;SDS011;4196;48.926;8.964;2024-01-07T14:26:17;8.70;;;4.53;;
8317;SDS011;4196;48.926;8.964;2024-01-07T14:29:05;11.00;;;5.37;;
8317;SDS011;4196;48.926;8.964;2024-01-07T14:32:04;7.13;;;4.30;;
8317;SDS011;4196;48.926;8.964;2024-01-07T14:34:54;9.53;;;5.43;;
8317;SDS011;4196;48.926;8.964;2024-01-07T14:37:40;8.37;;;5.47;;
8317;SDS011;4196;48.926;8.964;2024-01-07T14:40:27;9.80;;;4.33;;
8317;SDS011;4196;48.926;8.964;2024-01-07T14:43:13;6.20;;;3.80;;
8317;SDS011;4196;48.926;8.964;2024-01-07T14:46:00;7.50;;;4.53;;
8317;SDS011;4196;48.926;8.964;2024-01-07T14:48:46;7.70;;;4.10;;
8317;SDS011;4196;48.926;8.964;2024-01-07T14:51:33;7.70;;;4.20;;
8317;SDS011;4196;48.926;8.964;2024-01-07T14:54:19;8.20;;;4.77;;
8317;SDS011;4196;48.926;8.964;2024-01-07T14:57:06;11.07;;;5.27;;
8317;SDS011;4196;48.926;8.964;2024-01-07T14:59:54;6.93;;;4.40;;
8317;SDS011;4196;48.926;8.964;2024-01-07T15:02:41;7.83;;;4.17;;
8317;SDS011;4196;48.926;8.964;2024-01-07T15:05:28;7.40;;;4.33;;
8317;SDS011;4196;48.926;8.964;2024-01-07T15:08:14;7.10;;;4.47;;
8317;SDS011;4196;48.926;8.964;2024-01-07T15:11:00;11.07;;;4.50;;
8317;SDS011;4196;48.926;8.964;2024-01-07T15:13:47;8.83;;;4.50;;
8317;SDS011;4196;48.926;8.964;2024-01-07T15:16:34;8.30;;;4.40;;
8317;SDS011;4196;48.926;8.964;2024-01-07T15:19:22;11.33;;;6.00;;
8317;SDS011;4196;48.926;8.964;2024-01-07T15:22:09;7.37;;;4.23;;
8317;SDS011;4196;48.926;8.964;2024-01-07T15:24:56;9.47;;;4.17;;
8317;SDS011;4196;48.926;8.964;2024-01-07T15:27:42;7.77;;;4.23;;
8317;SDS011;4196;48.926;8.964;2024-01-07T15:30:29;8.97;;;4.67;;
8317;SDS011;4196;48.926;8.964;2024-01-07T15:33:16;10.87;;;5.13;;
8317;SDS011;4196;48.926;8.964;2024-01-07T15:36:03;7.70;;;4.33;;
8317;SDS011;4196;48.926;8.964;2024-01-07T15:38:50;8.47;;;5.03;;
8317;SDS011;4196;48.926;8.964;2024-01-07T15:41:36;7.27;;;4.67;;
8317;SDS011;4196;48.926;8.964;2024-01-07T15:44:24;7.93;;;4.40;;
8317;SDS011;4196;48.926;8.964;2024-01-07T15:47:13;8.63;;;4.93;;
8317;SDS011;4196;48.926;8.964;2024-01-07T15:49:59;7.60;;;4.17;;
8317;SDS011;4196;48.926;8.964;2024-01-07T15:52:46;7.00;;;3.73;;
8317;SDS011;4196;48.926;8.964;2024-01-07T15:55:34;5.73;;;3.80;;
8317;SDS011;4196;48.926;8.964;2024-01-07T15:58:21;6.07;;;3.73;;
8317;SDS011;4196;48.926;8.964;2024-01-07T16:01:08;6.27;;;3.57;;
8317;SDS011;4196;48.926;8.964;2024-01-07T16:03:55;5.00;;;3.43;;
8317;SDS011;4196;48.926;8.964;2024-01-07T16:06:42;6.03;;;4.37;;
8317;SDS011;4196;48.926;8.964;2024-01-07T16:09:30;8.93;;;3.73;;
8317;SDS011;4196;48.926;8.964;2024-01-07T16:12:22;5.93;;;3.00;;
8317;SDS011;4196;48.926;8.964;2024-01-07T16:15:09;4.87;;;3.43;;
8317;SDS011;4196;48.926;8.964;2024-01-07T16:17:56;6.20;;;3.93;;
8317;SDS011;4196;48.926;8.964;2024-01-07T16:20:43;6.00;;;3.03;;
8317;SDS011;4196;48.926;8.964;2024-01-07T16:23:30;9.17;;;4.03;;
8317;SDS011;4196;48.926;8.964;2024-01-07T16:26:19;5.07;;;2.97;;
8317;SDS011;4196;48.926;8.964;2024-01-07T16:29:06;7.00;;;3.67;;
8317;SDS011;4196;48.926;8.964;2024-01-07T16:31:55;5.07;;;3.20;;
8317;SDS011;4196;48.926;8.964;2024-01-07T16:34:41;8.20;;;4.10;;
8317;SDS011;4196;48.926;8.964;2024-01-07T16:37:28;8.23;;;4.43;;
8317;SDS011;4196;48.926;8.964;2024-01-07T16:40:14;10.53;;;5.13;;
8317;SDS011;4196;48.926;8.964;2024-01-07T16:43:01;6.60;;;3.57;;
8317;SDS011;4196;48.926;8.964;2024-01-07T16:45:48;7.13;;;4.70;;
8317;SDS011;4196;48.926;8.964;2024-01-07T16:48:35;7.50;;;3.87;;
8317;SDS011;4196;48.926;8.964;2024-01-07T16:51:24;9.07;;;4.43;;
8317;SDS011;4196;48.926;8.964;2024-01-07T16:54:10;7.20;;;3.37;;
8317;SDS011;4196;48.926;8.964;2024-01-07T16:56:57;5.93;;;3.53;;
8317;SDS011;4196;48.926;8.964;2024-01-07T16:59:44;4.53;;;3.80;;
8317;SDS011;4196;48.926;8.964;2024-01-07T17:02:33;6.67;;;3.60;;
8317;SDS011;4196;48.926;8.964;2024-01-07T17:05:20;6.93;;;4.30;;
8317;SDS011;4196;48.926;8.964;2024-01-07T17:08:09;5.47;;;3.67;;
8317;SDS011;4196;48.926;8.964;2024-01-07T17:14:12;10.93;;;5.43;;
8317;SDS011;4196;48.926;8.964;2024-01-07T17:16:58;6.43;;;4.13;;
8317;SDS011;4196;48.926;8.964;2024-01-07T17:19:46;6.93;;;3.30;;
8317;SDS011;4196;48.926;8.964;2024-01-07T17:22:34;7.80;;;4.77;;
8317;SDS011;4196;48.926;8.964;2024-01-07T17:25:21;7.37;;;3.90;;
8317;SDS011;4196;48.926;8.964;2024-01-07T17:28:07;7.77;;;4.53;;
8317;SDS011;4196;48.926;8.964;2024-01-07T17:30:54;6.40;;;4.43;;
8317;SDS011;4196;48.926;8.964;2024-01-07T17:33:41;9.77;;;3.80;;
8317;SDS011;4196;48.926;8.964;2024-01-07T17:36:28;8.80;;;3.80;;
8317;SDS011;4196;48.926;8.964;2024-01-07T17:39:16;6.87;;;4.50;;
8317;SDS011;4196;48.926;8.964;2024-01-07T17:42:03;7.10;;;3.80;;
8317;SDS011;4196;48.926;8.964;2024-01-07T17:44:52;8.63;;;4.13;;
8317;SDS011;4196;48.926;8.964;2024-01-07T17:47:38;8.00;;;4.80;;
8317;SDS011;4196;48.926;8.964;2024-01-07T17:50:25;10.13;;;4.37;;
8317;SDS011;4196;48.926;8.964;2024-01-07T17:53:11;8.10;;;5.03;;
8317;SDS011;4196;48.926;8.964;2024-01-07T17:55:58;7.07;;;4.10;;
8317;SDS011;4196;48.926;8.964;2024-01-07T17:58:45;13.03;;;5.40;;
8317;SDS011;4196;48.926;8.964;2024-01-07T18:04:44;10.10;;;4.67;;
8317;SDS011;4196;48.926;8.964;2024-01-07T18:07:30;8.47;;;4.33;;
8317;SDS011;4196;48.926;8.964;2024-01-07T18:10:17;6.63;;;3.97;;
8317;SDS011;4196;48.926;8.964;2024-01-07T18:13:03;7.73;;;4.10;;
8317;SDS011;4196;48.926;8.964;2024-01-07T18:15:52;7.57;;;3.50;;
8317;SDS011;4196;48.926;8.964;2024-01-07T18:18:38;6.83;;;3.80;;